KLM49F EHAM-EDDH
Flight info
| Callsign | KLM49F |
|---|---|
| Flight time | 0h 39m |
| Altitude | 29000 |
| Route | ANDIK M105 RIBSO RIBSO7A |
| Aircraft | B738/M-SDE2E3FGHIRWXY/LB1 |
Departure
| Time | 2026-05-06 23:32 |
|---|---|
| Airport | Amsterdam Airport Schiphol (EHAM) |
Arrival
| Time | 2026-05-07 00:11 |
|---|---|
| Airport | Hamburg Helmut Schmidt Airport (EDDH) |
| Time | Latitude | Longitude | Altitude | Speed | Heading |
|---|---|---|---|---|---|
| 2026-05-06 23:19 | 52.30562 | 4.76830 | -3 ft | 0 kts | 269° |
| 2026-05-06 23:23 | 52.30562 | 4.76831 | -3 ft | 1 kts | 269° |
| 2026-05-06 23:23 | 52.30562 | 4.76853 | -3 ft | 3 kts | 269° |
| 2026-05-06 23:23 | 52.30562 | 4.76885 | -3 ft | 3 kts | 269° |
| 2026-05-06 23:23 | 52.30563 | 4.76918 | -3 ft | 3 kts | 269° |
| 2026-05-06 23:24 | 52.30563 | 4.76951 | -3 ft | 3 kts | 269° |
| 2026-05-06 23:24 | 52.30564 | 4.76984 | -3 ft | 3 kts | 269° |
| 2026-05-06 23:24 | 52.30564 | 4.77017 | -3 ft | 2 kts | 269° |
| 2026-05-06 23:24 | 52.30564 | 4.77018 | -3 ft | 0 kts | 269° |
| 2026-05-06 23:26 | 52.30564 | 4.77016 | -3 ft | 1 kts | 269° |
| 2026-05-06 23:26 | 52.30559 | 4.76989 | -3 ft | 6 kts | 233° |
| 2026-05-06 23:27 | 52.30487 | 4.77024 | -3 ft | 17 kts | 149° |
| 2026-05-06 23:27 | 52.30385 | 4.77041 | -3 ft | 16 kts | 238° |
| 2026-05-06 23:27 | 52.30311 | 4.76847 | -3 ft | 23 kts | 238° |
| 2026-05-06 23:27 | 52.30217 | 4.76601 | -3 ft | 27 kts | 238° |
| 2026-05-06 23:28 | 52.30126 | 4.76361 | -3 ft | 22 kts | 238° |
| 2026-05-06 23:28 | 52.30043 | 4.76148 | -3 ft | 25 kts | 238° |
| 2026-05-06 23:28 | 52.29946 | 4.75894 | -3 ft | 27 kts | 238° |
| 2026-05-06 23:28 | 52.29854 | 4.75652 | -3 ft | 24 kts | 238° |
| 2026-05-06 23:29 | 52.29777 | 4.75416 | -3 ft | 20 kts | 280° |
| 2026-05-06 23:29 | 52.29847 | 4.75222 | -3 ft | 22 kts | 311° |
| 2026-05-06 23:29 | 52.29956 | 4.75023 | -3 ft | 24 kts | 313° |
| 2026-05-06 23:29 | 52.30071 | 4.74813 | -3 ft | 25 kts | 311° |
| 2026-05-06 23:30 | 52.30190 | 4.74596 | -3 ft | 26 kts | 309° |
| 2026-05-06 23:30 | 52.30301 | 4.74382 | -3 ft | 22 kts | 310° |
| 2026-05-06 23:30 | 52.30342 | 4.74185 | -3 ft | 16 kts | 265° |
| 2026-05-06 23:30 | 52.30281 | 4.74024 | -3 ft | 20 kts | 217° |
| 2026-05-06 23:31 | 52.30187 | 4.73842 | -3 ft | 21 kts | 284° |
| 2026-05-06 23:31 | 52.30290 | 4.73781 | -3 ft | 21 kts | 4° |
| 2026-05-06 23:31 | 52.30591 | 4.73811 | -3 ft | 71 kts | 2° |
| 2026-05-06 23:31 | 52.31264 | 4.73872 | -3 ft | 121 kts | 4° |
| 2026-05-06 23:32 | 52.32237 | 4.73969 | 114 ft | 151 kts | 4° |
| 2026-05-06 23:32 | 52.33291 | 4.74064 | 689 ft | 152 kts | 4° |
| 2026-05-06 23:32 | 52.34355 | 4.74284 | 1258 ft | 157 kts | 14° |
| 2026-05-06 23:32 | 52.35354 | 4.74945 | 1912 ft | 150 kts | 26° |
| 2026-05-06 23:33 | 52.36276 | 4.75675 | 2480 ft | 151 kts | 26° |
| 2026-05-06 23:33 | 52.37225 | 4.76445 | 3006 ft | 152 kts | 29° |
| 2026-05-06 23:33 | 52.38111 | 4.77463 | 3412 ft | 164 kts | 41° |
| 2026-05-06 23:33 | 52.38992 | 4.78817 | 3671 ft | 184 kts | 45° |
| 2026-05-06 23:34 | 52.39942 | 4.80399 | 3904 ft | 206 kts | 46° |
| 2026-05-06 23:34 | 52.40994 | 4.82160 | 4229 ft | 225 kts | 46° |
| 2026-05-06 23:34 | 52.42139 | 4.84062 | 4598 ft | 243 kts | 43° |
| 2026-05-06 23:34 | 52.43626 | 4.85484 | 5116 ft | 255 kts | 18° |
| 2026-05-06 23:35 | 52.45391 | 4.85942 | 5789 ft | 261 kts | 5° |
| 2026-05-06 23:35 | 52.47226 | 4.86004 | 6495 ft | 265 kts | 1° |
| 2026-05-06 23:35 | 52.49060 | 4.85885 | 7215 ft | 269 kts | 358° |
| 2026-05-06 23:35 | 52.50936 | 4.85697 | 7944 ft | 272 kts | 358° |
| 2026-05-06 23:36 | 52.52819 | 4.86017 | 8668 ft | 275 kts | 19° |
| 2026-05-06 23:36 | 52.54473 | 4.87599 | 9368 ft | 280 kts | 41° |
| 2026-05-06 23:36 | 52.55865 | 4.89871 | 10080 ft | 285 kts | 44° |
| 2026-05-06 23:36 | 52.57252 | 4.92243 | 10725 ft | 292 kts | 47° |
| 2026-05-06 23:37 | 52.58602 | 4.94838 | 11208 ft | 307 kts | 49° |
| 2026-05-06 23:37 | 52.59977 | 4.97666 | 11506 ft | 327 kts | 51° |
| 2026-05-06 23:37 | 52.61419 | 5.00692 | 11772 ft | 346 kts | 51° |
| 2026-05-06 23:37 | 52.62925 | 5.03862 | 12020 ft | 365 kts | 51° |
| 2026-05-06 23:38 | 52.64520 | 5.07225 | 12352 ft | 379 kts | 51° |
| 2026-05-06 23:38 | 52.66158 | 5.10689 | 12931 ft | 386 kts | 51° |
| 2026-05-06 23:38 | 52.67816 | 5.14198 | 13583 ft | 391 kts | 51° |
| 2026-05-06 23:38 | 52.69494 | 5.17753 | 14245 ft | 395 kts | 51° |
| 2026-05-06 23:39 | 52.71190 | 5.21348 | 14904 ft | 400 kts | 51° |
| 2026-05-06 23:39 | 52.72816 | 5.25106 | 15555 ft | 405 kts | 57° |
| 2026-05-06 23:39 | 52.74199 | 5.29179 | 16183 ft | 410 kts | 63° |
| 2026-05-06 23:39 | 52.75341 | 5.33523 | 16815 ft | 414 kts | 68° |
| 2026-05-06 23:40 | 52.76336 | 5.37942 | 17393 ft | 419 kts | 70° |
| 2026-05-06 23:40 | 52.77297 | 5.42509 | 17978 ft | 424 kts | 70° |
| 2026-05-06 23:40 | 52.78267 | 5.47134 | 18560 ft | 427 kts | 70° |
| 2026-05-06 23:40 | 52.79245 | 5.51787 | 19131 ft | 431 kts | 70° |
| 2026-05-06 23:41 | 52.80235 | 5.56493 | 19658 ft | 435 kts | 70° |
| 2026-05-06 23:41 | 52.81232 | 5.61237 | 20204 ft | 439 kts | 71° |
| 2026-05-06 23:41 | 52.82237 | 5.66016 | 20733 ft | 442 kts | 71° |
| 2026-05-06 23:41 | 52.83250 | 5.70841 | 21208 ft | 446 kts | 71° |
| 2026-05-06 23:42 | 52.84271 | 5.75712 | 21679 ft | 450 kts | 71° |
| 2026-05-06 23:42 | 52.85300 | 5.80622 | 22159 ft | 453 kts | 71° |
| 2026-05-06 23:42 | 52.86349 | 5.85490 | 22617 ft | 457 kts | 70° |
| 2026-05-06 23:42 | 52.87419 | 5.90463 | 23044 ft | 460 kts | 71° |
| 2026-05-06 23:43 | 52.88489 | 5.95473 | 23492 ft | 463 kts | 71° |
| 2026-05-06 23:43 | 52.89560 | 6.00523 | 23884 ft | 467 kts | 71° |
| 2026-05-06 23:43 | 52.90633 | 6.05611 | 24303 ft | 469 kts | 71° |
| 2026-05-06 23:43 | 52.91708 | 6.10730 | 24719 ft | 472 kts | 71° |
| 2026-05-06 23:44 | 52.92785 | 6.15879 | 25114 ft | 474 kts | 71° |
| 2026-05-06 23:44 | 52.93850 | 6.20988 | 25498 ft | 476 kts | 71° |
| 2026-05-06 23:44 | 52.94931 | 6.26189 | 25848 ft | 479 kts | 71° |
| 2026-05-06 23:44 | 52.96017 | 6.31437 | 26202 ft | 481 kts | 71° |
| 2026-05-06 23:45 | 52.97101 | 6.36684 | 26663 ft | 481 kts | 72° |
| 2026-05-06 23:45 | 52.98184 | 6.41946 | 26928 ft | 483 kts | 72° |
| 2026-05-06 23:45 | 52.99267 | 6.47220 | 26954 ft | 484 kts | 72° |
| 2026-05-06 23:45 | 53.00347 | 6.52498 | 26960 ft | 482 kts | 72° |
| 2026-05-06 23:46 | 53.01421 | 6.57758 | 26963 ft | 480 kts | 72° |
| 2026-05-06 23:46 | 53.02490 | 6.63006 | 26963 ft | 480 kts | 72° |
| 2026-05-06 23:46 | 53.03547 | 6.68184 | 26963 ft | 480 kts | 71° |
| 2026-05-06 23:46 | 53.04637 | 6.73425 | 26963 ft | 480 kts | 72° |
| 2026-05-06 23:47 | 53.05709 | 6.78675 | 26963 ft | 480 kts | 72° |
| 2026-05-06 23:47 | 53.06770 | 6.83939 | 26962 ft | 480 kts | 72° |
| 2026-05-06 23:47 | 53.07823 | 6.89201 | 26961 ft | 480 kts | 72° |
| 2026-05-06 23:47 | 53.08870 | 6.94466 | 26961 ft | 480 kts | 72° |
| 2026-05-06 23:48 | 53.09916 | 6.99741 | 26960 ft | 480 kts | 72° |
| 2026-05-06 23:48 | 53.10957 | 7.05012 | 26960 ft | 480 kts | 72° |
| 2026-05-06 23:48 | 53.11985 | 7.10217 | 26959 ft | 480 kts | 72° |
| 2026-05-06 23:48 | 53.13012 | 7.15415 | 26961 ft | 480 kts | 72° |
| 2026-05-06 23:49 | 53.14067 | 7.20776 | 26961 ft | 480 kts | 72° |
| 2026-05-06 23:49 | 53.15095 | 7.26055 | 26961 ft | 480 kts | 73° |
| 2026-05-06 23:49 | 53.16121 | 7.31349 | 26961 ft | 480 kts | 73° |
| 2026-05-06 23:49 | 53.17145 | 7.36639 | 26960 ft | 480 kts | 72° |
| 2026-05-06 23:50 | 53.18184 | 7.41918 | 26960 ft | 480 kts | 72° |
| 2026-05-06 23:50 | 53.20238 | 7.52512 | 26960 ft | 480 kts | 73° |
| 2026-05-06 23:50 | 53.21244 | 7.57720 | 26957 ft | 476 kts | 73° |
| 2026-05-06 23:51 | 53.22227 | 7.62919 | 26555 ft | 466 kts | 73° |
| 2026-05-06 23:51 | 53.23236 | 7.68056 | 25753 ft | 466 kts | 72° |
| 2026-05-06 23:51 | 53.24261 | 7.73208 | 24709 ft | 471 kts | 72° |
| 2026-05-06 23:51 | 53.25282 | 7.78444 | 23612 ft | 477 kts | 72° |
| 2026-05-06 23:52 | 53.26295 | 7.83711 | 22830 ft | 475 kts | 72° |
| 2026-05-06 23:52 | 53.27292 | 7.88936 | 22198 ft | 468 kts | 72° |
| 2026-05-06 23:52 | 53.28270 | 7.94095 | 21553 ft | 463 kts | 72° |
| 2026-05-06 23:52 | 53.29220 | 7.99124 | 20904 ft | 458 kts | 72° |
| 2026-05-06 23:53 | 53.30170 | 8.04173 | 20224 ft | 453 kts | 73° |
| 2026-05-06 23:53 | 53.31104 | 8.09137 | 19409 ft | 443 kts | 73° |
| 2026-05-06 23:53 | 53.32023 | 8.14020 | 18403 ft | 438 kts | 72° |
| 2026-05-06 23:53 | 53.32947 | 8.18845 | 17444 ft | 432 kts | 71° |
| 2026-05-06 23:54 | 53.33993 | 8.23509 | 16536 ft | 425 kts | 68° |
| 2026-05-06 23:54 | 53.35096 | 8.28057 | 15634 ft | 418 kts | 68° |
| 2026-05-06 23:54 | 53.36143 | 8.32486 | 14749 ft | 411 kts | 68° |
| 2026-05-06 23:54 | 53.37180 | 8.36949 | 14011 ft | 410 kts | 69° |
| 2026-05-06 23:55 | 53.38194 | 8.41369 | 13499 ft | 403 kts | 69° |
| 2026-05-06 23:55 | 53.39162 | 8.45741 | 13014 ft | 396 kts | 72° |
| 2026-05-06 23:55 | 53.39767 | 8.50187 | 12691 ft | 386 kts | 82° |
| 2026-05-06 23:55 | 53.39931 | 8.54583 | 12588 ft | 371 kts | 90° |
| 2026-05-06 23:56 | 53.39846 | 8.58807 | 12485 ft | 353 kts | 93° |
| 2026-05-06 23:56 | 53.39662 | 8.62793 | 12371 ft | 334 kts | 95° |
| 2026-05-06 23:56 | 53.39451 | 8.66566 | 12265 ft | 317 kts | 95° |
| 2026-05-06 23:56 | 53.39251 | 8.70101 | 12168 ft | 301 kts | 95° |
| 2026-05-06 23:57 | 53.39058 | 8.73530 | 11970 ft | 291 kts | 95° |
| 2026-05-06 23:57 | 53.38868 | 8.76879 | 11621 ft | 287 kts | 95° |
| 2026-05-06 23:57 | 53.38680 | 8.80188 | 11258 ft | 284 kts | 95° |
| 2026-05-06 23:57 | 53.38493 | 8.83474 | 10896 ft | 284 kts | 95° |
| 2026-05-06 23:58 | 53.38306 | 8.86750 | 10658 ft | 281 kts | 95° |
| 2026-05-06 23:58 | 53.38137 | 8.89996 | 10393 ft | 279 kts | 93° |
| 2026-05-06 23:58 | 53.37985 | 8.93234 | 10163 ft | 276 kts | 94° |
| 2026-05-06 23:58 | 53.37826 | 8.96407 | 10004 ft | 271 kts | 94° |
| 2026-05-06 23:59 | 53.37663 | 8.99491 | 9767 ft | 269 kts | 94° |
| 2026-05-06 23:59 | 53.37493 | 9.02596 | 9507 ft | 267 kts | 94° |
| 2026-05-06 23:59 | 53.37321 | 9.05682 | 9245 ft | 266 kts | 94° |
| 2026-05-06 23:59 | 53.37145 | 9.08752 | 8984 ft | 264 kts | 94° |
| 2026-05-07 00:00 | 53.36968 | 9.11804 | 8720 ft | 263 kts | 94° |
| 2026-05-07 00:00 | 53.36790 | 9.14840 | 8456 ft | 261 kts | 94° |
| 2026-05-07 00:00 | 53.36611 | 9.17860 | 8190 ft | 260 kts | 94° |
| 2026-05-07 00:00 | 53.36493 | 9.19848 | 8016 ft | 259 kts | 94° |
| 2026-05-07 00:01 | 53.36253 | 9.23844 | 7661 ft | 257 kts | 94° |
| 2026-05-07 00:01 | 53.36077 | 9.26772 | 7399 ft | 256 kts | 94° |
| 2026-05-07 00:01 | 53.35898 | 9.29723 | 7135 ft | 254 kts | 94° |
| 2026-05-07 00:01 | 53.35720 | 9.32657 | 6870 ft | 253 kts | 94° |
| 2026-05-07 00:02 | 53.35544 | 9.35573 | 6605 ft | 251 kts | 94° |
| 2026-05-07 00:02 | 53.35368 | 9.38469 | 6340 ft | 249 kts | 94° |
| 2026-05-07 00:02 | 53.35348 | 9.41343 | 6061 ft | 246 kts | 77° |
| 2026-05-07 00:02 | 53.35934 | 9.44024 | 5749 ft | 246 kts | 64° |
| 2026-05-07 00:03 | 53.36815 | 9.46463 | 5465 ft | 244 kts | 54° |
| 2026-05-07 00:03 | 53.37849 | 9.48660 | 5185 ft | 243 kts | 50° |
| 2026-05-07 00:03 | 53.38980 | 9.50760 | 4916 ft | 242 kts | 47° |
| 2026-05-07 00:03 | 53.40105 | 9.52837 | 4642 ft | 240 kts | 49° |
| 2026-05-07 00:04 | 53.41184 | 9.54963 | 4380 ft | 238 kts | 49° |
| 2026-05-07 00:04 | 53.42260 | 9.57065 | 4092 ft | 237 kts | 50° |
| 2026-05-07 00:04 | 53.43323 | 9.59163 | 3962 ft | 236 kts | 50° |
| 2026-05-07 00:04 | 53.44373 | 9.61252 | 3837 ft | 232 kts | 50° |
| 2026-05-07 00:05 | 53.45410 | 9.63322 | 3506 ft | 233 kts | 50° |
| 2026-05-07 00:05 | 53.46448 | 9.65401 | 3301 ft | 228 kts | 50° |
| 2026-05-07 00:05 | 53.47419 | 9.67347 | 3310 ft | 213 kts | 50° |
| 2026-05-07 00:05 | 53.48334 | 9.69183 | 3297 ft | 198 kts | 50° |
| 2026-05-07 00:06 | 53.49191 | 9.70903 | 3281 ft | 184 kts | 50° |
| 2026-05-07 00:06 | 53.49982 | 9.72494 | 3206 ft | 172 kts | 50° |
| 2026-05-07 00:06 | 53.50730 | 9.73997 | 3104 ft | 165 kts | 50° |
| 2026-05-07 00:06 | 53.51464 | 9.75474 | 3021 ft | 165 kts | 50° |
| 2026-05-07 00:07 | 53.52197 | 9.76948 | 2963 ft | 164 kts | 50° |
| 2026-05-07 00:07 | 53.52925 | 9.78414 | 2812 ft | 164 kts | 50° |
| 2026-05-07 00:07 | 53.53643 | 9.79859 | 2585 ft | 157 kts | 50° |
| 2026-05-07 00:07 | 53.54321 | 9.81224 | 2386 ft | 147 kts | 50° |
| 2026-05-07 00:08 | 53.54963 | 9.82519 | 2190 ft | 142 kts | 50° |
| 2026-05-07 00:08 | 53.55590 | 9.83781 | 1998 ft | 139 kts | 50° |
| 2026-05-07 00:08 | 53.56210 | 9.85033 | 1818 ft | 141 kts | 50° |
| 2026-05-07 00:08 | 53.56838 | 9.86298 | 1630 ft | 140 kts | 50° |
| 2026-05-07 00:09 | 53.57465 | 9.87564 | 1439 ft | 142 kts | 50° |
| 2026-05-07 00:09 | 53.58091 | 9.88828 | 1256 ft | 143 kts | 50° |
| 2026-05-07 00:09 | 53.58733 | 9.90112 | 1073 ft | 144 kts | 50° |
| 2026-05-07 00:09 | 53.59387 | 9.91390 | 883 ft | 144 kts | 51° |
| 2026-05-07 00:10 | 53.60016 | 9.92686 | 694 ft | 142 kts | 52° |
| 2026-05-07 00:10 | 53.60636 | 9.93978 | 502 ft | 142 kts | 52° |
| 2026-05-07 00:10 | 53.61262 | 9.95248 | 327 ft | 140 kts | 51° |
| 2026-05-07 00:10 | 53.61888 | 9.96507 | 139 ft | 140 kts | 51° |
| 2026-05-07 00:11 | 53.62497 | 9.97733 | 62 ft | 125 kts | 51° |
| 2026-05-07 00:11 | 53.62856 | 9.98463 | 61 ft | 49 kts | 51° |
| 2026-05-07 00:11 | 53.63002 | 9.98755 | 61 ft | 26 kts | 50° |
| 2026-05-07 00:11 | 53.63086 | 9.98981 | 61 ft | 20 kts | 76° |
| 2026-05-07 00:12 | 53.63091 | 9.99185 | 61 ft | 15 kts | 98° |
| 2026-05-07 00:12 | 53.63079 | 9.99325 | 61 ft | 10 kts | 89° |
| 2026-05-07 00:12 | 53.63122 | 9.99453 | 61 ft | 16 kts | 54° |
| 2026-05-07 00:12 | 53.63195 | 9.99616 | 61 ft | 19 kts | 51° |
| 2026-05-07 00:13 | 53.63278 | 9.99785 | 61 ft | 19 kts | 51° |
| 2026-05-07 00:13 | 53.63354 | 9.99943 | 61 ft | 15 kts | 51° |
| 2026-05-07 00:13 | 53.63414 | 10.00068 | 61 ft | 14 kts | 51° |
| 2026-05-07 00:13 | 53.63418 | 10.00206 | 61 ft | 12 kts | 146° |
| 2026-05-07 00:14 | 53.63345 | 10.00231 | 61 ft | 10 kts | 173° |
| 2026-05-07 00:14 | 53.63322 | 10.00301 | 61 ft | 7 kts | 87° |
| 2026-05-07 00:14 | 53.63325 | 10.00377 | 61 ft | 3 kts | 86° |
| 2026-05-07 00:14 | 53.63325 | 10.00381 | 61 ft | 0 kts | 86° |